createdAt,value
2023-05-11T00:00:56.566Z,13.20
2023-05-11T00:02:00.001Z,13.18
2023-05-11T00:03:04.565Z,13.17
2023-05-11T00:04:08.823Z,13.17
2023-05-11T00:05:13.154Z,13.19
2023-05-11T00:06:17.520Z,13.19
2023-05-11T00:07:21.870Z,13.17
2023-05-11T00:08:26.294Z,13.14
2023-05-11T00:09:30.561Z,13.13
2023-05-11T00:10:35.038Z,13.12
2023-05-11T00:11:39.385Z,13.12
2023-05-11T00:12:43.644Z,13.09
2023-05-11T00:13:48.076Z,13.10
2023-05-11T00:14:52.385Z,13.08
2023-05-11T00:15:56.944Z,13.08
2023-05-11T00:17:01.158Z,13.06
2023-05-11T00:18:05.625Z,13.02
2023-05-11T00:19:10.043Z,13.04
2023-05-11T00:20:14.275Z,13.02
2023-05-11T00:21:18.661Z,12.99
2023-05-11T00:22:22.938Z,12.92
2023-05-11T00:23:27.364Z,12.87
2023-05-11T00:24:31.612Z,12.82
2023-05-11T00:25:36.100Z,12.78
2023-05-11T00:26:40.500Z,12.76
2023-05-11T00:27:44.712Z,12.72
2023-05-11T00:28:49.150Z,12.68
2023-05-11T00:29:53.420Z,12.65
2023-05-11T00:30:57.882Z,12.65
2023-05-11T00:32:02.046Z,12.66
2023-05-11T00:33:06.541Z,12.69
2023-05-11T00:34:10.786Z,12.74
2023-05-11T00:35:15.167Z,12.80
2023-05-11T00:36:19.444Z,12.86
2023-05-11T00:37:25.860Z,12.87
2023-05-11T00:38:28.133Z,12.90
2023-05-11T00:39:32.548Z,12.95
2023-05-11T00:40:39.834Z,12.97
2023-05-11T00:41:43.360Z,12.96
2023-05-11T00:42:47.655Z,12.95
2023-05-11T00:43:52.060Z,12.96
2023-05-11T00:44:56.422Z,12.94
2023-05-11T00:46:00.725Z,12.93
2023-05-11T00:47:05.193Z,12.93
2023-05-11T00:48:09.447Z,12.90
2023-05-11T00:49:28.013Z,12.91
2023-05-11T00:50:31.306Z,12.89
2023-05-11T00:51:35.660Z,12.87
2023-05-11T00:52:39.974Z,12.86
2023-05-11T00:53:44.254Z,12.85
2023-05-11T00:54:48.593Z,12.85
2023-05-11T00:55:52.873Z,12.83
2023-05-11T00:56:57.189Z,12.82
2023-05-11T00:58:01.675Z,12.80
2023-05-11T00:59:05.993Z,12.82
2023-05-11T01:00:10.417Z,12.83
2023-05-11T01:01:14.671Z,12.82
2023-05-11T01:02:19.152Z,12.80
2023-05-11T01:03:23.389Z,12.78
2023-05-11T01:04:27.594Z,12.78
2023-05-11T01:05:32.029Z,12.77
2023-05-11T01:06:36.299Z,12.75
2023-05-11T01:07:40.720Z,12.74
2023-05-11T01:08:45.087Z,12.73
2023-05-11T01:09:49.327Z,12.74
2023-05-11T01:10:53.770Z,12.75
2023-05-11T01:11:58.168Z,12.75
2023-05-11T01:13:02.572Z,12.72
2023-05-11T01:14:06.898Z,12.63
2023-05-11T01:15:11.222Z,12.54
2023-05-11T01:16:15.647Z,12.43
2023-05-11T01:17:19.832Z,12.32
2023-05-11T01:18:24.266Z,12.25
2023-05-11T01:19:28.607Z,12.21
2023-05-11T01:20:32.972Z,12.21
2023-05-11T01:21:37.253Z,12.24
2023-05-11T01:22:41.636Z,12.25
2023-05-11T01:23:45.902Z,12.26
2023-05-11T01:24:50.390Z,12.26
2023-05-11T01:25:54.617Z,12.25
2023-05-11T01:26:59.067Z,12.24
2023-05-11T01:28:03.335Z,12.23
2023-05-11T01:29:07.695Z,12.22
2023-05-11T01:30:12.060Z,12.22
2023-05-11T01:31:16.450Z,12.22
2023-05-11T01:32:20.721Z,12.21
2023-05-11T01:33:25.093Z,12.19
2023-05-11T01:34:29.407Z,12.20
2023-05-11T01:35:33.717Z,12.20
2023-05-11T01:36:37.957Z,12.22
2023-05-11T01:37:42.323Z,12.22
2023-05-11T01:38:46.670Z,12.21
2023-05-11T01:39:50.958Z,12.20
2023-05-11T01:40:55.357Z,12.19
2023-05-11T01:41:59.622Z,12.17
2023-05-11T01:43:03.900Z,12.18
2023-05-11T01:44:08.287Z,12.16
2023-05-11T01:45:12.559Z,12.17
2023-05-11T01:46:17.022Z,12.17
2023-05-11T01:47:21.342Z,12.17
2023-05-11T01:48:25.580Z,12.18
2023-05-11T01:49:29.961Z,12.16
2023-05-11T01:50:34.319Z,12.15
2023-05-11T01:51:38.752Z,12.12
2023-05-11T01:52:42.986Z,12.09
2023-05-11T01:53:47.352Z,12.08
2023-05-11T01:54:51.655Z,12.07
2023-05-11T01:55:56.062Z,12.08
2023-05-11T01:57:06.354Z,12.11
2023-05-11T01:58:09.252Z,12.13
2023-05-11T01:59:13.517Z,12.12
2023-05-11T02:00:18.104Z,12.10
2023-05-11T02:01:22.305Z,12.08
2023-05-11T02:02:26.635Z,12.07
2023-05-11T02:03:44.968Z,12.06
2023-05-11T02:04:48.304Z,12.06
2023-05-11T02:05:52.547Z,12.05
2023-05-11T02:06:56.816Z,12.03
2023-05-11T02:08:01.107Z,12.03
2023-05-11T02:09:05.566Z,12.02
2023-05-11T02:10:09.907Z,12.02
2023-05-11T02:11:14.239Z,12.02
2023-05-11T02:12:18.702Z,12.02
2023-05-11T02:13:22.944Z,12.01
2023-05-11T02:14:27.311Z,12.00
2023-05-11T02:15:31.658Z,12.00
2023-05-11T02:16:35.970Z,11.99
2023-05-11T02:17:40.331Z,11.98
2023-05-11T02:18:44.620Z,11.97
2023-05-11T02:19:48.973Z,11.97
2023-05-11T02:20:53.279Z,11.95
2023-05-11T02:21:57.686Z,11.92
2023-05-11T02:23:02.006Z,11.88
2023-05-11T02:24:06.309Z,11.84
2023-05-11T02:25:10.654Z,11.80
2023-05-11T02:26:29.025Z,11.77
2023-05-11T02:27:32.246Z,11.75
2023-05-11T02:28:36.508Z,11.70
2023-05-11T02:29:40.692Z,11.67
2023-05-11T02:30:45.014Z,11.64
2023-05-11T02:31:49.462Z,11.61
2023-05-11T02:32:53.817Z,11.59
2023-05-11T02:33:58.002Z,11.56
2023-05-11T02:35:02.463Z,11.54
2023-05-11T02:36:06.832Z,11.53
2023-05-11T02:37:11.188Z,11.50
2023-05-11T02:38:15.508Z,11.49
2023-05-11T02:39:19.751Z,11.48
2023-05-11T02:40:24.122Z,11.47
2023-05-11T02:41:28.398Z,11.46
2023-05-11T02:42:32.777Z,11.41
2023-05-11T02:43:37.018Z,11.34
2023-05-11T02:44:41.321Z,11.29
2023-05-11T02:45:45.541Z,11.25
2023-05-11T02:46:49.856Z,11.21
2023-05-11T02:47:54.228Z,11.22
2023-05-11T02:48:58.607Z,11.21
2023-05-11T02:50:02.805Z,11.19
2023-05-11T02:51:07.196Z,11.18
2023-05-11T02:52:11.446Z,11.18
2023-05-11T02:53:15.762Z,11.19
2023-05-11T02:54:20.195Z,11.22
2023-05-11T02:55:24.422Z,11.27
2023-05-11T02:56:28.755Z,11.30
2023-05-11T02:57:33.039Z,11.35
2023-05-11T02:58:37.388Z,11.38
2023-05-11T02:59:41.609Z,11.42
2023-05-11T03:00:45.976Z,11.47
2023-05-11T03:01:50.455Z,11.50
2023-05-11T03:02:54.662Z,11.56
2023-05-11T03:03:59.084Z,11.58
2023-05-11T03:05:03.279Z,11.60
2023-05-11T03:06:07.600Z,11.62
2023-05-11T03:07:11.961Z,11.67
2023-05-11T03:08:16.195Z,11.70
2023-05-11T03:09:20.467Z,11.73
2023-05-11T03:10:24.844Z,11.75
2023-05-11T03:11:29.100Z,11.78
2023-05-11T03:12:33.415Z,11.78
2023-05-11T03:13:37.661Z,11.79
2023-05-11T03:14:42.100Z,11.82
2023-05-11T03:15:46.319Z,11.85
2023-05-11T03:16:53.826Z,11.86
2023-05-11T03:17:57.199Z,11.88
2023-05-11T03:19:01.628Z,11.89
2023-05-11T03:20:05.851Z,11.89
2023-05-11T03:21:10.108Z,11.91
2023-05-11T03:22:14.408Z,11.92
2023-05-11T03:23:18.732Z,11.93
2023-05-11T03:24:23.158Z,11.94
2023-05-11T03:25:27.537Z,11.96
2023-05-11T03:26:31.853Z,11.96
2023-05-11T03:27:36.234Z,11.98
2023-05-11T03:28:40.508Z,11.99
2023-05-11T03:29:45.025Z,12.01
2023-05-11T03:30:49.318Z,12.01
2023-05-11T03:31:53.630Z,12.00
2023-05-11T03:32:58.052Z,12.01
2023-05-11T03:34:02.388Z,12.03
2023-05-11T03:36:33.682Z,12.09
2023-05-11T03:37:37.944Z,12.12
2023-05-11T03:38:42.295Z,12.13
2023-05-11T03:39:46.678Z,12.15
2023-05-11T03:40:50.926Z,12.15
2023-05-11T03:41:55.342Z,12.13
2023-05-11T03:42:59.666Z,12.13
2023-05-11T03:44:03.918Z,12.13
2023-05-11T03:45:08.194Z,12.14
2023-05-11T03:46:12.632Z,12.14
2023-05-11T03:47:16.771Z,12.16
2023-05-11T03:48:21.059Z,12.19
2023-05-11T03:49:25.299Z,12.21
2023-05-11T03:50:29.668Z,12.23
2023-05-11T03:51:33.936Z,12.23
2023-05-11T03:52:38.235Z,12.26
2023-05-11T03:53:42.536Z,12.28
2023-05-11T03:54:46.780Z,12.33
2023-05-11T03:55:51.107Z,12.35
2023-05-11T03:56:55.425Z,12.39
2023-05-11T03:58:00.520Z,12.44
2023-05-11T03:59:04.149Z,12.50
2023-05-11T04:00:08.494Z,12.54
2023-05-11T04:01:12.938Z,12.57
2023-05-11T04:02:17.270Z,12.58
2023-05-11T04:03:21.736Z,12.60
2023-05-11T04:04:25.884Z,12.61
2023-05-11T04:05:30.192Z,12.62
2023-05-11T04:06:34.455Z,12.63
2023-05-11T04:07:38.750Z,12.65
2023-05-11T04:08:43.155Z,12.66
2023-05-11T04:09:47.480Z,12.67
2023-05-11T04:10:51.726Z,12.68
2023-05-11T04:11:56.046Z,12.69
2023-05-11T04:13:00.424Z,12.70
2023-05-11T04:14:04.635Z,12.71
2023-05-11T04:15:08.937Z,12.73
2023-05-11T04:16:13.273Z,12.75
2023-05-11T04:17:17.532Z,12.76
2023-05-11T04:18:21.883Z,12.79
2023-05-11T04:19:26.130Z,12.82
2023-05-11T04:20:30.441Z,12.84
2023-05-11T04:21:34.756Z,12.87
2023-05-11T04:22:39.068Z,12.90
2023-05-11T04:23:46.517Z,12.93
2023-05-11T04:24:49.891Z,12.96
2023-05-11T04:25:54.143Z,12.99
2023-05-11T04:26:58.471Z,13.02
2023-05-11T04:28:02.745Z,13.05
2023-05-11T04:29:07.038Z,13.08
2023-05-11T04:30:11.404Z,13.11
2023-05-11T04:31:15.823Z,13.13
2023-05-11T04:32:20.076Z,13.16
2023-05-11T04:33:24.345Z,13.19
2023-05-11T04:34:28.689Z,13.22
2023-05-11T04:35:33.069Z,13.24
2023-05-11T04:36:37.339Z,13.26
2023-05-11T04:37:41.692Z,13.29
2023-05-11T04:38:45.954Z,13.31
2023-05-11T04:39:50.239Z,13.34
2023-05-11T04:40:54.505Z,13.37
2023-05-11T04:41:58.901Z,13.38
2023-05-11T04:43:03.278Z,13.42
2023-05-11T04:44:07.634Z,13.44
2023-05-11T04:45:11.964Z,13.47
2023-05-11T04:46:16.264Z,13.50
2023-05-11T04:47:20.573Z,13.53
2023-05-11T04:48:24.983Z,13.56
2023-05-11T04:49:29.366Z,13.59
2023-05-11T04:50:33.676Z,13.62
2023-05-11T04:51:37.958Z,13.64
2023-05-11T04:52:42.368Z,13.66
2023-05-11T04:53:46.741Z,13.68
2023-05-11T04:54:51.054Z,13.71
2023-05-11T04:55:55.337Z,13.73
2023-05-11T04:56:59.656Z,13.75
2023-05-11T04:58:04.013Z,13.78
2023-05-11T04:59:08.336Z,13.82
2023-05-11T05:00:12.600Z,13.85
2023-05-11T05:01:17.002Z,13.88
2023-05-11T05:02:21.124Z,13.92
2023-05-11T05:03:25.659Z,13.95
2023-05-11T05:04:29.888Z,13.99
2023-05-11T05:05:34.179Z,14.05
2023-05-11T05:06:38.608Z,14.09
2023-05-11T05:07:43.067Z,14.13
2023-05-11T05:08:47.437Z,14.17
2023-05-11T05:09:51.700Z,14.20
2023-05-11T05:10:56.032Z,14.25
2023-05-11T05:12:00.394Z,14.28
2023-05-11T05:13:04.768Z,14.31
2023-05-11T05:14:09.085Z,14.35
2023-05-11T05:15:13.484Z,14.40
2023-05-11T05:16:17.782Z,14.44
2023-05-11T05:17:22.111Z,14.48
2023-05-11T05:18:26.549Z,14.52
2023-05-11T05:19:44.901Z,14.56
2023-05-11T05:20:48.081Z,14.61
2023-05-11T05:21:52.354Z,14.67
2023-05-11T05:22:56.639Z,14.72
2023-05-11T05:24:00.990Z,14.76
2023-05-11T05:25:05.396Z,14.80
2023-05-11T05:26:09.750Z,14.85
2023-05-11T05:27:14.035Z,14.89
2023-05-11T05:28:18.534Z,14.93
2023-05-11T05:29:22.859Z,14.97
2023-05-11T05:30:27.237Z,15.02
2023-05-11T05:32:36.053Z,15.12
2023-05-11T05:33:40.284Z,15.17
2023-05-11T05:34:44.641Z,15.22
2023-05-11T05:35:48.919Z,15.27
2023-05-11T05:36:53.381Z,15.32
2023-05-11T05:37:57.709Z,15.36
2023-05-11T05:39:02.008Z,15.43
2023-05-11T05:40:06.421Z,15.48
2023-05-11T05:41:10.864Z,15.53
2023-05-11T05:42:15.199Z,15.59
2023-05-11T05:43:33.734Z,15.65
2023-05-11T05:44:36.944Z,15.74
2023-05-11T05:45:41.215Z,15.81
2023-05-11T05:46:45.752Z,15.88
2023-05-11T05:47:49.942Z,15.95
2023-05-11T05:48:54.342Z,16.04
2023-05-11T05:51:26.309Z,16.22
2023-05-11T05:52:30.562Z,16.32
2023-05-11T05:53:34.968Z,16.41
2023-05-11T05:54:39.350Z,16.46
2023-05-11T05:55:43.623Z,16.52
2023-05-11T05:56:48.100Z,16.55
2023-05-11T05:57:52.417Z,16.56
2023-05-11T05:58:56.864Z,16.56
2023-05-11T06:00:01.168Z,16.54
2023-05-11T06:01:05.558Z,16.52
2023-05-11T06:02:10.132Z,16.51
2023-05-11T06:03:14.385Z,16.53
2023-05-11T06:04:18.937Z,16.57
2023-05-11T06:05:23.031Z,16.59
2023-05-11T06:06:27.563Z,16.61
2023-05-11T06:07:31.920Z,16.63
2023-05-11T06:08:36.302Z,16.64
2023-05-11T06:09:40.609Z,16.66
2023-05-11T06:10:44.984Z,16.67
2023-05-11T06:11:49.301Z,16.69
2023-05-11T06:12:53.749Z,16.72
2023-05-11T06:14:04.166Z,16.71
2023-05-11T06:15:07.240Z,16.74
2023-05-11T06:16:11.582Z,16.79
2023-05-11T06:17:15.882Z,16.85
2023-05-11T06:18:20.389Z,16.89
2023-05-11T06:19:24.701Z,16.94
2023-05-11T06:20:29.232Z,16.99
2023-05-11T06:21:33.427Z,17.01
2023-05-11T06:22:37.896Z,17.04
2023-05-11T06:23:42.277Z,17.06
2023-05-11T06:24:46.602Z,17.09
2023-05-11T06:25:51.019Z,17.13
2023-05-11T06:26:55.538Z,17.19
2023-05-11T06:27:59.906Z,17.24
2023-05-11T06:29:04.324Z,17.28
2023-05-11T06:30:08.654Z,17.32
2023-05-11T06:31:13.155Z,17.34
2023-05-11T06:32:17.476Z,17.36
2023-05-11T06:33:21.893Z,17.38
2023-05-11T06:34:26.316Z,17.40
2023-05-11T06:35:30.677Z,17.22
2023-05-11T06:36:35.086Z,17.14
2023-05-11T06:37:39.510Z,17.14
2023-05-11T06:38:43.988Z,17.19
2023-05-11T06:39:48.338Z,17.22
2023-05-11T06:40:52.897Z,17.26
2023-05-11T06:42:00.409Z,17.32
2023-05-11T06:43:01.623Z,17.36
2023-05-11T06:44:06.060Z,17.39
2023-05-11T06:45:10.543Z,17.43
2023-05-11T06:46:14.924Z,17.46
2023-05-11T06:47:19.214Z,17.46
2023-05-11T06:48:23.632Z,17.47
2023-05-11T06:49:28.148Z,17.47
2023-05-11T06:50:32.558Z,17.50
2023-05-11T06:51:39.950Z,17.55
2023-05-11T06:52:43.507Z,17.53
2023-05-11T06:53:47.905Z,17.40
2023-05-11T06:54:52.289Z,17.39
2023-05-11T06:55:56.661Z,17.45
2023-05-11T06:57:01.113Z,17.50
2023-05-11T06:58:05.444Z,17.57
2023-05-11T06:59:09.870Z,17.62
2023-05-11T07:00:28.363Z,17.52
2023-05-11T07:01:31.895Z,17.51
2023-05-11T07:02:36.217Z,17.54
2023-05-11T07:03:40.480Z,17.52
2023-05-11T07:04:45.103Z,17.55
2023-05-11T07:05:49.343Z,17.58
2023-05-11T07:06:56.830Z,17.57
2023-05-11T07:08:00.329Z,17.61
2023-05-11T07:09:18.665Z,17.65
2023-05-11T07:10:28.194Z,17.75
2023-05-11T07:11:31.262Z,17.75
2023-05-11T07:12:35.644Z,17.78
2023-05-11T07:13:40.057Z,17.50
2023-05-11T07:14:44.512Z,17.05
2023-05-11T07:15:48.888Z,16.87
2023-05-11T07:16:53.297Z,16.58
2023-05-11T07:19:24.974Z,16.83
2023-05-11T07:20:29.291Z,16.91
2023-05-11T07:21:33.628Z,17.04
2023-05-11T07:22:38.057Z,16.96
2023-05-11T07:23:42.357Z,16.59
2023-05-11T07:24:46.859Z,16.36
2023-05-11T07:25:51.208Z,16.38
2023-05-11T07:26:55.671Z,16.38
2023-05-11T07:28:00.018Z,16.57
2023-05-11T07:29:04.501Z,16.63
2023-05-11T07:30:09.012Z,16.59
2023-05-11T07:31:13.365Z,16.65
2023-05-11T07:32:17.784Z,16.68
2023-05-11T07:33:22.261Z,16.65
2023-05-11T07:34:32.695Z,16.53
2023-05-11T07:35:35.788Z,16.56
2023-05-11T07:36:40.189Z,16.55
2023-05-11T07:37:44.610Z,16.53
2023-05-11T07:38:49.019Z,16.57
2023-05-11T07:39:53.541Z,16.63
2023-05-11T07:40:57.797Z,16.68
2023-05-11T07:42:02.298Z,16.68
2023-05-11T07:43:06.685Z,16.63
2023-05-11T07:44:11.001Z,16.60
2023-05-11T07:45:15.457Z,16.55
2023-05-11T07:46:19.936Z,16.48
2023-05-11T07:47:24.216Z,16.49
2023-05-11T07:48:28.542Z,16.59
2023-05-11T07:49:42.947Z,16.49
2023-05-11T07:50:37.492Z,16.53
2023-05-11T07:51:41.938Z,16.49
2023-05-11T07:52:46.389Z,16.54
2023-05-11T07:53:50.799Z,16.57
2023-05-11T07:54:55.221Z,16.60
2023-05-11T07:55:59.638Z,16.63
2023-05-11T07:58:31.508Z,16.85
2023-05-11T07:59:35.863Z,16.80
2023-05-11T08:00:40.301Z,16.88
2023-05-11T08:01:44.678Z,16.93
2023-05-11T08:02:52.226Z,17.04
2023-05-11T08:03:55.654Z,17.04
2023-05-11T08:04:59.971Z,16.96
2023-05-11T08:06:04.467Z,17.00
2023-05-11T08:07:08.910Z,17.07
2023-05-11T08:08:13.268Z,17.27
2023-05-11T08:09:17.698Z,17.44
2023-05-11T08:10:22.065Z,17.45
2023-05-11T08:11:26.526Z,17.37
2023-05-11T08:12:30.989Z,17.00
2023-05-11T08:13:35.517Z,16.85
2023-05-11T08:14:39.946Z,16.84
2023-05-11T08:15:44.447Z,16.85
2023-05-11T08:16:48.910Z,16.87
2023-05-11T08:17:53.239Z,16.89
2023-05-11T08:18:57.682Z,16.88
2023-05-11T08:20:01.985Z,16.94
2023-05-11T08:21:06.432Z,17.03
2023-05-11T08:22:10.883Z,17.07
2023-05-11T08:23:15.368Z,17.08
2023-05-11T08:24:19.757Z,17.10
2023-05-11T08:25:24.104Z,17.17
2023-05-11T08:26:28.528Z,17.34
2023-05-11T08:27:33.032Z,17.44
2023-05-11T08:28:37.434Z,17.17
2023-05-11T08:29:41.894Z,17.17
2023-05-11T08:30:49.274Z,17.17
2023-05-11T08:31:52.879Z,16.84
2023-05-11T08:32:58.925Z,16.75
2023-05-11T08:34:01.700Z,16.71
2023-05-11T08:35:06.141Z,16.70
2023-05-11T08:36:10.465Z,16.92
2023-05-11T08:37:14.889Z,16.92
2023-05-11T08:38:19.386Z,17.03
2023-05-11T08:39:38.970Z,17.04
2023-05-11T08:40:28.233Z,17.06
2023-05-11T08:41:32.650Z,16.80
2023-05-11T08:42:37.095Z,16.75
2023-05-11T08:43:41.571Z,16.50
2023-05-11T08:44:46.052Z,16.53
2023-05-11T08:45:50.527Z,16.72
2023-05-11T08:47:08.559Z,16.82
2023-05-11T08:47:59.428Z,16.92
2023-05-11T08:49:03.738Z,16.74
2023-05-11T08:50:08.121Z,16.62
2023-05-11T08:52:39.888Z,16.53
2023-05-11T08:53:44.251Z,16.77
2023-05-11T08:54:48.541Z,16.91
2023-05-11T08:55:52.947Z,17.06
2023-05-11T08:56:57.397Z,17.02
2023-05-11T08:58:01.751Z,17.03
2023-05-11T08:59:06.147Z,16.83
2023-05-11T09:00:10.583Z,16.78
2023-05-11T09:01:15.110Z,16.87
2023-05-11T09:02:19.577Z,16.88
2023-05-11T09:03:23.998Z,16.92
2023-05-11T09:04:28.358Z,16.75
2023-05-11T09:05:32.992Z,16.74
2023-05-11T09:06:37.377Z,16.84
2023-05-11T09:07:41.749Z,16.80
2023-05-11T09:08:46.234Z,16.51
2023-05-11T09:09:50.721Z,16.36
2023-05-11T09:10:55.044Z,16.43
2023-05-11T09:11:59.472Z,16.50
2023-05-11T09:13:03.981Z,16.37
2023-05-11T09:14:08.443Z,16.03
2023-05-11T09:15:12.891Z,15.95
2023-05-11T09:16:35.705Z,16.05
2023-05-11T09:17:21.856Z,15.89
2023-05-11T09:18:26.234Z,15.77
2023-05-11T09:19:30.597Z,15.90
2023-05-11T09:20:34.970Z,16.14
2023-05-11T09:21:39.451Z,16.27
2023-05-11T09:22:43.914Z,15.98
2023-05-11T09:23:48.317Z,15.68
2023-05-11T09:24:52.764Z,15.84
2023-05-11T09:25:57.306Z,15.84
2023-05-11T09:27:01.791Z,15.86
2023-05-11T09:28:06.175Z,16.01
2023-05-11T09:29:10.502Z,16.13
2023-05-11T09:31:19.473Z,15.97
2023-05-11T09:32:24.150Z,15.72
2023-05-11T09:33:28.398Z,15.76
2023-05-11T09:34:32.748Z,15.78
2023-05-11T09:35:37.290Z,15.75
2023-05-11T09:36:41.828Z,15.90
2023-05-11T09:37:46.252Z,15.98
2023-05-11T09:38:50.675Z,15.96
2023-05-11T09:40:25.081Z,16.07
2023-05-11T09:40:59.468Z,15.94
2023-05-11T09:42:03.872Z,15.76
2023-05-11T09:43:08.234Z,15.87
2023-05-11T09:44:26.846Z,15.91
2023-05-11T09:45:30.153Z,15.68
2023-05-11T09:46:34.485Z,15.75
2023-05-11T09:47:38.860Z,15.49
2023-05-11T09:48:43.358Z,15.34
2023-05-11T09:49:47.870Z,15.47
2023-05-11T09:50:52.232Z,15.60
2023-05-11T09:51:56.737Z,15.67
2023-05-11T09:53:01.150Z,15.10
2023-05-11T09:54:05.535Z,15.15
2023-05-11T09:55:10.039Z,15.19
2023-05-11T09:56:14.506Z,15.00
2023-05-11T09:57:18.813Z,14.79
2023-05-11T09:58:23.212Z,14.84
2023-05-11T09:59:27.737Z,14.62
2023-05-11T10:00:46.098Z,14.53
2023-05-11T10:01:49.459Z,14.57
2023-05-11T10:02:53.824Z,14.53
2023-05-11T10:04:13.386Z,14.34
2023-05-11T10:05:02.741Z,14.48
2023-05-11T10:06:07.087Z,14.45
2023-05-11T10:07:11.475Z,14.41
2023-05-11T10:08:15.988Z,14.35
2023-05-11T10:09:20.461Z,14.43
2023-05-11T10:10:24.945Z,14.38
2023-05-11T10:11:29.398Z,14.30
2023-05-11T10:12:47.944Z,14.14
2023-05-11T10:13:51.226Z,14.09
2023-05-11T10:14:55.772Z,13.98
2023-05-11T10:16:00.172Z,13.96
2023-05-11T10:17:18.593Z,13.65
2023-05-11T10:18:22.303Z,13.38
2023-05-11T10:19:26.496Z,13.40
2023-05-11T10:20:30.926Z,13.71
2023-05-11T10:21:49.390Z,13.84
2023-05-11T10:22:52.713Z,13.82
2023-05-11T10:23:57.070Z,13.93
2023-05-11T10:25:01.588Z,14.18
2023-05-11T10:26:06.062Z,14.15
2023-05-11T10:27:10.598Z,14.09
2023-05-11T10:28:14.912Z,14.31
2023-05-11T10:29:19.407Z,14.34
2023-05-11T10:30:23.769Z,14.26
2023-05-11T10:31:28.315Z,14.22
2023-05-11T10:32:32.731Z,14.31
2023-05-11T10:33:37.096Z,13.94
2023-05-11T10:34:41.609Z,14.20
2023-05-11T10:35:46.150Z,14.18
2023-05-11T10:36:50.585Z,14.24
2023-05-11T10:37:55.034Z,14.48
2023-05-11T10:38:59.577Z,14.03
2023-05-11T10:40:03.892Z,14.02
2023-05-11T10:41:08.436Z,14.10
2023-05-11T10:42:12.838Z,13.95
2023-05-11T10:43:20.411Z,14.07
2023-05-11T10:44:23.987Z,14.41
2023-05-11T10:45:28.458Z,14.62
2023-05-11T10:46:32.818Z,14.54
2023-05-11T10:47:37.316Z,14.54
2023-05-11T10:48:41.852Z,14.40
2023-05-11T10:49:46.217Z,14.11
2023-05-11T10:50:50.781Z,14.09
2023-05-11T10:51:55.280Z,14.46
2023-05-11T10:52:59.745Z,14.72
2023-05-11T10:54:04.085Z,14.92
2023-05-11T10:55:08.605Z,14.80
2023-05-11T10:56:13.097Z,14.50
2023-05-11T10:57:17.553Z,14.33
2023-05-11T10:58:22.002Z,14.45
2023-05-11T10:59:26.421Z,14.51
2023-05-11T11:00:33.853Z,14.61
2023-05-11T11:01:37.357Z,14.54
2023-05-11T11:02:41.918Z,14.78
2023-05-11T11:03:49.279Z,14.39
2023-05-11T11:04:52.965Z,14.47
2023-05-11T11:06:00.064Z,14.24
2023-05-11T11:07:01.892Z,14.27
2023-05-11T11:08:06.398Z,14.15
2023-05-11T11:09:10.883Z,13.91
2023-05-11T11:10:15.360Z,13.86
2023-05-11T11:11:22.823Z,13.68
2023-05-11T11:12:26.489Z,13.42
2023-05-11T11:13:30.833Z,13.50
2023-05-11T11:14:35.466Z,13.94
2023-05-11T11:15:39.924Z,13.82
2023-05-11T11:16:44.301Z,13.91
2023-05-11T11:17:48.704Z,13.96
2023-05-11T11:18:53.266Z,14.17
2023-05-11T11:19:57.697Z,14.19
2023-05-11T11:21:02.173Z,13.85
2023-05-11T11:22:06.642Z,13.61
2023-05-11T11:23:10.998Z,13.53
2023-05-11T11:24:15.421Z,13.34
2023-05-11T11:25:20.186Z,13.48
2023-05-11T11:26:24.468Z,13.50
2023-05-11T11:27:30.679Z,13.53
2023-05-11T11:28:33.297Z,13.35
2023-05-11T11:29:37.854Z,13.36
2023-05-11T11:30:42.308Z,13.41
2023-05-11T11:31:46.816Z,13.55
2023-05-11T11:32:51.128Z,13.49
2023-05-11T11:33:55.469Z,13.56
2023-05-11T11:34:59.990Z,13.67
2023-05-11T11:36:04.480Z,13.77
2023-05-11T11:37:09.004Z,14.05
2023-05-11T11:38:13.399Z,13.89
2023-05-11T11:39:17.767Z,13.74
2023-05-11T11:40:22.280Z,13.46
2023-05-11T11:41:26.782Z,13.56
2023-05-11T11:42:31.201Z,13.75
2023-05-11T11:43:37.814Z,13.83
2023-05-11T11:44:40.020Z,13.87
2023-05-11T11:45:44.465Z,13.76
2023-05-11T11:46:48.974Z,13.71
2023-05-11T11:47:53.401Z,13.45
2023-05-11T11:49:00.825Z,13.50
2023-05-11T11:50:04.358Z,13.26
2023-05-11T11:51:08.861Z,13.30
2023-05-11T11:52:27.229Z,13.38
2023-05-11T11:53:30.734Z,13.30
2023-05-11T11:54:35.100Z,13.23
2023-05-11T11:55:39.427Z,13.15
2023-05-11T11:56:43.982Z,13.29
2023-05-11T11:57:48.384Z,13.42
2023-05-11T11:58:52.795Z,13.56
2023-05-11T11:59:57.285Z,13.86
2023-05-11T12:01:15.629Z,13.91
2023-05-11T12:02:19.004Z,13.73
2023-05-11T12:03:29.566Z,13.62
2023-05-11T12:04:32.830Z,13.61
2023-05-11T12:05:37.058Z,13.69
2023-05-11T12:06:41.486Z,13.59
2023-05-11T12:07:45.880Z,13.98
2023-05-11T12:08:50.380Z,14.34
2023-05-11T12:09:54.988Z,14.23
2023-05-11T12:10:59.325Z,14.35
2023-05-11T12:12:03.797Z,13.83
2023-05-11T12:13:08.217Z,13.62
2023-05-11T12:14:12.779Z,13.42
2023-05-11T12:15:17.582Z,13.39
2023-05-11T12:16:21.662Z,13.48
2023-05-11T12:17:26.153Z,13.55
2023-05-11T12:18:30.528Z,13.68
2023-05-11T12:19:35.070Z,13.75
2023-05-11T12:20:39.492Z,13.59
2023-05-11T12:21:43.924Z,13.63
2023-05-11T12:22:48.412Z,13.63
2023-05-11T12:23:52.844Z,13.60
2023-05-11T12:24:59.653Z,13.67
2023-05-11T12:26:01.693Z,13.51
2023-05-11T12:27:06.221Z,13.43
2023-05-11T12:28:10.775Z,13.59
2023-05-11T12:29:15.124Z,13.73
2023-05-11T12:30:19.667Z,13.66
2023-05-11T12:31:24.139Z,13.50
2023-05-11T12:32:28.550Z,13.44
2023-05-11T12:33:32.955Z,13.54
2023-05-11T12:34:37.428Z,13.60
2023-05-11T12:35:41.964Z,13.56
2023-05-11T12:36:46.277Z,13.66
2023-05-11T12:37:50.792Z,13.85
2023-05-11T12:38:55.331Z,14.11
2023-05-11T12:39:59.772Z,13.88
2023-05-11T12:41:04.308Z,13.70
2023-05-11T12:42:08.731Z,13.60
2023-05-11T12:43:13.083Z,13.30
2023-05-11T12:44:17.516Z,13.19
2023-05-11T12:45:22.006Z,13.49
2023-05-11T12:46:26.457Z,13.95
2023-05-11T12:47:30.969Z,13.66
2023-05-11T12:48:35.232Z,13.44
2023-05-11T12:49:39.716Z,13.67
2023-05-11T12:50:44.237Z,13.89
2023-05-11T12:51:48.612Z,13.81
2023-05-11T12:52:53.104Z,13.59
2023-05-11T12:53:57.525Z,13.65
2023-05-11T12:55:07.989Z,13.67
2023-05-11T12:56:11.147Z,13.46
2023-05-11T12:57:15.567Z,13.43
2023-05-11T12:58:19.960Z,13.42
2023-05-11T12:59:24.373Z,13.29
2023-05-11T13:00:28.862Z,13.06
2023-05-11T13:01:33.311Z,12.90
2023-05-11T13:02:37.724Z,12.99
2023-05-11T13:03:48.482Z,12.73
2023-05-11T13:04:51.208Z,12.93
2023-05-11T13:05:55.656Z,12.86
2023-05-11T13:07:00.116Z,12.61
2023-05-11T13:08:04.588Z,12.76
2023-05-11T13:09:09.060Z,12.93
2023-05-11T13:10:13.407Z,13.00
2023-05-11T13:11:17.825Z,12.90
2023-05-11T13:12:22.414Z,13.03
2023-05-11T13:13:26.935Z,12.81
2023-05-11T13:14:31.344Z,12.98
2023-05-11T13:15:35.724Z,13.23
2023-05-11T13:16:40.296Z,13.21
2023-05-11T13:17:44.778Z,12.97
2023-05-11T13:18:52.134Z,13.05
2023-05-11T13:19:55.702Z,12.78
2023-05-11T13:21:00.228Z,12.75
2023-05-11T13:22:04.703Z,12.76
2023-05-11T13:23:09.110Z,12.87
2023-05-11T13:24:13.623Z,12.54
2023-05-11T13:25:18.261Z,12.84
2023-05-11T13:26:22.651Z,12.74
2023-05-11T13:27:27.012Z,12.39
2023-05-11T13:28:31.424Z,12.50
2023-05-11T13:29:36.600Z,12.61
2023-05-11T13:30:40.785Z,12.74
2023-05-11T13:31:45.356Z,12.76
2023-05-11T13:32:49.730Z,12.46
2023-05-11T13:33:54.072Z,12.61
2023-05-11T13:34:58.554Z,12.56
2023-05-11T13:36:03.069Z,12.67
2023-05-11T13:37:07.529Z,12.82
2023-05-11T13:38:11.854Z,12.77
2023-05-11T13:39:16.267Z,12.75
2023-05-11T13:40:20.745Z,12.78
2023-05-11T13:41:25.212Z,12.88
2023-05-11T13:42:29.614Z,12.98
2023-05-11T13:43:34.026Z,13.03
2023-05-11T13:44:38.528Z,13.09
2023-05-11T13:45:43.054Z,12.93
2023-05-11T13:46:47.468Z,12.59
2023-05-11T13:47:51.815Z,12.32
2023-05-11T13:48:56.152Z,12.41
2023-05-11T13:50:00.644Z,12.62
2023-05-11T13:51:05.143Z,12.91
2023-05-11T13:52:09.625Z,13.02
2023-05-11T13:53:14.072Z,12.83
2023-05-11T13:54:18.474Z,12.84
2023-05-11T13:55:22.980Z,12.83
2023-05-11T13:56:27.297Z,12.75
2023-05-11T13:57:31.831Z,12.50
2023-05-11T13:58:36.234Z,12.49
2023-05-11T13:59:40.740Z,12.48
2023-05-11T14:00:56.610Z,12.53
2023-05-11T14:02:03.789Z,12.49
2023-05-11T14:03:06.961Z,12.64